sensor_id;sensor_type;location;lat;lon;timestamp;P1;durP1;ratioP1;P2;durP2;ratioP2
13163;SDS011;6647;53.688;10.746;2023-12-20T00:00:29;17.33;;;3.25;;
13163;SDS011;6647;53.688;10.746;2023-12-20T00:01:29;14.73;;;2.90;;
13163;SDS011;6647;53.688;10.746;2023-12-20T00:02:29;11.93;;;2.77;;
13163;SDS011;6647;53.688;10.746;2023-12-20T00:03:30;18.73;;;3.00;;
13163;SDS011;6647;53.688;10.746;2023-12-20T00:04:30;22.80;;;3.40;;
13163;SDS011;6647;53.688;10.746;2023-12-20T00:05:30;19.93;;;3.17;;
13163;SDS011;6647;53.688;10.746;2023-12-20T00:06:35;13.20;;;2.50;;
13163;SDS011;6647;53.688;10.746;2023-12-20T00:07:35;25.93;;;3.17;;
13163;SDS011;6647;53.688;10.746;2023-12-20T00:08:36;12.23;;;2.50;;
13163;SDS011;6647;53.688;10.746;2023-12-20T00:09:36;13.13;;;3.20;;
13163;SDS011;6647;53.688;10.746;2023-12-20T00:10:36;28.23;;;3.60;;
13163;SDS011;6647;53.688;10.746;2023-12-20T00:11:37;9.37;;;2.37;;
13163;SDS011;6647;53.688;10.746;2023-12-20T00:12:37;10.83;;;2.87;;
13163;SDS011;6647;53.688;10.746;2023-12-20T00:13:37;25.07;;;2.20;;
13163;SDS011;6647;53.688;10.746;2023-12-20T00:14:38;24.00;;;2.77;;
13163;SDS011;6647;53.688;10.746;2023-12-20T00:15:38;22.67;;;3.10;;
13163;SDS011;6647;53.688;10.746;2023-12-20T00:16:38;20.90;;;3.50;;
13163;SDS011;6647;53.688;10.746;2023-12-20T00:17:38;16.07;;;2.40;;
13163;SDS011;6647;53.688;10.746;2023-12-20T00:18:39;14.30;;;2.70;;
13163;SDS011;6647;53.688;10.746;2023-12-20T00:19:39;14.23;;;4.00;;
13163;SDS011;6647;53.688;10.746;2023-12-20T00:20:40;15.27;;;3.10;;
13163;SDS011;6647;53.688;10.746;2023-12-20T00:21:40;20.43;;;3.40;;
13163;SDS011;6647;53.688;10.746;2023-12-20T00:22:41;14.73;;;2.93;;
13163;SDS011;6647;53.688;10.746;2023-12-20T00:23:41;14.40;;;2.63;;
13163;SDS011;6647;53.688;10.746;2023-12-20T00:24:41;25.80;;;3.20;;
13163;SDS011;6647;53.688;10.746;2023-12-20T00:25:41;30.93;;;3.77;;
13163;SDS011;6647;53.688;10.746;2023-12-20T00:26:42;14.07;;;2.13;;
13163;SDS011;6647;53.688;10.746;2023-12-20T00:27:42;23.10;;;2.63;;
13163;SDS011;6647;53.688;10.746;2023-12-20T00:28:42;12.37;;;2.93;;
13163;SDS011;6647;53.688;10.746;2023-12-20T00:29:43;17.33;;;2.40;;
13163;SDS011;6647;53.688;10.746;2023-12-20T00:30:47;19.58;;;3.10;;
13163;SDS011;6647;53.688;10.746;2023-12-20T00:31:48;17.17;;;2.90;;
13163;SDS011;6647;53.688;10.746;2023-12-20T00:32:48;17.27;;;2.90;;
13163;SDS011;6647;53.688;10.746;2023-12-20T00:33:48;21.03;;;2.63;;
13163;SDS011;6647;53.688;10.746;2023-12-20T00:34:49;13.80;;;2.30;;
13163;SDS011;6647;53.688;10.746;2023-12-20T00:35:49;23.67;;;3.20;;
13163;SDS011;6647;53.688;10.746;2023-12-20T00:36:49;23.10;;;3.20;;
13163;SDS011;6647;53.688;10.746;2023-12-20T00:37:50;19.87;;;2.90;;
13163;SDS011;6647;53.688;10.746;2023-12-20T00:38:50;21.73;;;3.17;;
13163;SDS011;6647;53.688;10.746;2023-12-20T00:39:51;16.08;;;2.03;;
13163;SDS011;6647;53.688;10.746;2023-12-20T00:40:51;9.87;;;2.27;;
13163;SDS011;6647;53.688;10.746;2023-12-20T00:41:52;23.17;;;3.10;;
13163;SDS011;6647;53.688;10.746;2023-12-20T00:42:52;18.70;;;2.67;;
13163;SDS011;6647;53.688;10.746;2023-12-20T00:43:52;15.63;;;3.13;;
13163;SDS011;6647;53.688;10.746;2023-12-20T00:44:53;25.90;;;3.27;;
13163;SDS011;6647;53.688;10.746;2023-12-20T00:45:53;16.87;;;2.87;;
13163;SDS011;6647;53.688;10.746;2023-12-20T00:46:53;20.13;;;3.43;;
13163;SDS011;6647;53.688;10.746;2023-12-20T00:47:53;21.20;;;2.87;;
13163;SDS011;6647;53.688;10.746;2023-12-20T00:48:54;20.57;;;2.80;;
13163;SDS011;6647;53.688;10.746;2023-12-20T00:49:54;20.20;;;2.67;;
13163;SDS011;6647;53.688;10.746;2023-12-20T00:50:54;18.23;;;3.00;;
13163;SDS011;6647;53.688;10.746;2023-12-20T00:51:54;23.07;;;2.93;;
13163;SDS011;6647;53.688;10.746;2023-12-20T00:52:55;22.37;;;3.20;;
13163;SDS011;6647;53.688;10.746;2023-12-20T00:53:55;22.90;;;2.90;;
13163;SDS011;6647;53.688;10.746;2023-12-20T00:54:55;19.70;;;3.40;;
13163;SDS011;6647;53.688;10.746;2023-12-20T00:55:55;22.17;;;4.00;;
13163;SDS011;6647;53.688;10.746;2023-12-20T00:56:56;25.10;;;3.07;;
13163;SDS011;6647;53.688;10.746;2023-12-20T00:57:56;13.97;;;3.07;;
13163;SDS011;6647;53.688;10.746;2023-12-20T00:58:56;19.50;;;3.57;;
13163;SDS011;6647;53.688;10.746;2023-12-20T00:59:57;22.07;;;3.13;;
13163;SDS011;6647;53.688;10.746;2023-12-20T01:00:57;16.13;;;3.13;;
13163;SDS011;6647;53.688;10.746;2023-12-20T01:01:58;18.63;;;2.77;;
13163;SDS011;6647;53.688;10.746;2023-12-20T01:02:58;29.60;;;2.90;;
13163;SDS011;6647;53.688;10.746;2023-12-20T01:03:58;15.03;;;2.37;;
13163;SDS011;6647;53.688;10.746;2023-12-20T01:04:59;21.50;;;3.40;;
13163;SDS011;6647;53.688;10.746;2023-12-20T01:05:59;18.60;;;2.77;;
13163;SDS011;6647;53.688;10.746;2023-12-20T01:06:59;14.80;;;3.40;;
13163;SDS011;6647;53.688;10.746;2023-12-20T01:07:59;23.27;;;2.73;;
13163;SDS011;6647;53.688;10.746;2023-12-20T01:09:00;26.83;;;3.13;;
13163;SDS011;6647;53.688;10.746;2023-12-20T01:10:00;14.10;;;2.70;;
13163;SDS011;6647;53.688;10.746;2023-12-20T01:11:03;19.27;;;2.47;;
13163;SDS011;6647;53.688;10.746;2023-12-20T01:12:04;20.08;;;2.53;;
13163;SDS011;6647;53.688;10.746;2023-12-20T01:13:04;18.07;;;2.50;;
13163;SDS011;6647;53.688;10.746;2023-12-20T01:14:05;11.50;;;1.73;;
13163;SDS011;6647;53.688;10.746;2023-12-20T01:15:05;11.00;;;2.50;;
13163;SDS011;6647;53.688;10.746;2023-12-20T01:16:06;19.93;;;2.57;;
13163;SDS011;6647;53.688;10.746;2023-12-20T01:17:06;19.03;;;2.67;;
13163;SDS011;6647;53.688;10.746;2023-12-20T01:18:07;15.77;;;2.53;;
13163;SDS011;6647;53.688;10.746;2023-12-20T01:19:07;22.73;;;2.80;;
13163;SDS011;6647;53.688;10.746;2023-12-20T01:20:07;16.67;;;2.80;;
13163;SDS011;6647;53.688;10.746;2023-12-20T01:21:08;20.93;;;3.20;;
13163;SDS011;6647;53.688;10.746;2023-12-20T01:22:08;14.37;;;2.70;;
13163;SDS011;6647;53.688;10.746;2023-12-20T01:23:08;21.90;;;3.10;;
13163;SDS011;6647;53.688;10.746;2023-12-20T01:24:09;26.63;;;2.60;;
13163;SDS011;6647;53.688;10.746;2023-12-20T01:25:09;20.83;;;3.30;;
13163;SDS011;6647;53.688;10.746;2023-12-20T01:26:09;20.80;;;2.93;;
13163;SDS011;6647;53.688;10.746;2023-12-20T01:27:09;19.50;;;2.70;;
13163;SDS011;6647;53.688;10.746;2023-12-20T01:28:10;23.80;;;2.80;;
13163;SDS011;6647;53.688;10.746;2023-12-20T01:29:10;11.90;;;2.50;;
13163;SDS011;6647;53.688;10.746;2023-12-20T01:30:11;13.10;;;2.83;;
13163;SDS011;6647;53.688;10.746;2023-12-20T01:31:11;16.67;;;4.70;;
13163;SDS011;6647;53.688;10.746;2023-12-20T01:32:12;25.40;;;3.57;;
13163;SDS011;6647;53.688;10.746;2023-12-20T01:33:12;29.97;;;3.50;;
13163;SDS011;6647;53.688;10.746;2023-12-20T01:34:12;25.50;;;2.70;;
13163;SDS011;6647;53.688;10.746;2023-12-20T01:35:13;19.87;;;2.20;;
13163;SDS011;6647;53.688;10.746;2023-12-20T01:36:13;21.10;;;2.80;;
13163;SDS011;6647;53.688;10.746;2023-12-20T01:37:13;11.93;;;2.60;;
13163;SDS011;6647;53.688;10.746;2023-12-20T01:38:14;15.07;;;2.73;;
13163;SDS011;6647;53.688;10.746;2023-12-20T01:39:14;13.80;;;2.17;;
13163;SDS011;6647;53.688;10.746;2023-12-20T01:40:14;14.27;;;2.93;;
13163;SDS011;6647;53.688;10.746;2023-12-20T01:41:15;20.13;;;2.63;;
13163;SDS011;6647;53.688;10.746;2023-12-20T01:42:15;22.33;;;3.17;;
13163;SDS011;6647;53.688;10.746;2023-12-20T01:43:15;14.53;;;2.70;;
13163;SDS011;6647;53.688;10.746;2023-12-20T01:44:16;17.07;;;3.03;;
13163;SDS011;6647;53.688;10.746;2023-12-20T01:45:16;20.97;;;3.00;;
13163;SDS011;6647;53.688;10.746;2023-12-20T01:46:16;10.97;;;1.80;;
13163;SDS011;6647;53.688;10.746;2023-12-20T01:47:17;18.20;;;2.77;;
13163;SDS011;6647;53.688;10.746;2023-12-20T01:48:17;18.40;;;2.67;;
13163;SDS011;6647;53.688;10.746;2023-12-20T01:49:18;16.40;;;2.45;;
13163;SDS011;6647;53.688;10.746;2023-12-20T01:50:18;18.03;;;2.77;;
13163;SDS011;6647;53.688;10.746;2023-12-20T01:51:19;16.67;;;2.70;;
13163;SDS011;6647;53.688;10.746;2023-12-20T01:52:20;17.33;;;2.87;;
13163;SDS011;6647;53.688;10.746;2023-12-20T01:53:21;17.60;;;3.00;;
13163;SDS011;6647;53.688;10.746;2023-12-20T01:54:22;24.65;;;3.15;;
13163;SDS011;6647;53.688;10.746;2023-12-20T01:55:23;11.20;;;2.80;;
13163;SDS011;6647;53.688;10.746;2023-12-20T01:56:24;18.70;;;2.53;;
13163;SDS011;6647;53.688;10.746;2023-12-20T01:57:24;16.83;;;3.22;;
13163;SDS011;6647;53.688;10.746;2023-12-20T01:58:25;11.20;;;3.03;;
13163;SDS011;6647;53.688;10.746;2023-12-20T01:59:26;22.77;;;2.73;;
13163;SDS011;6647;53.688;10.746;2023-12-20T02:00:26;18.87;;;2.33;;
13163;SDS011;6647;53.688;10.746;2023-12-20T02:01:28;16.50;;;3.05;;
13163;SDS011;6647;53.688;10.746;2023-12-20T02:02:28;18.00;;;2.67;;
13163;SDS011;6647;53.688;10.746;2023-12-20T02:03:30;16.52;;;3.08;;
13163;SDS011;6647;53.688;10.746;2023-12-20T02:04:30;20.20;;;3.20;;
13163;SDS011;6647;53.688;10.746;2023-12-20T02:05:31;16.80;;;2.67;;
13163;SDS011;6647;53.688;10.746;2023-12-20T02:06:32;12.90;;;3.08;;
13163;SDS011;6647;53.688;10.746;2023-12-20T02:07:33;13.15;;;2.35;;
13163;SDS011;6647;53.688;10.746;2023-12-20T02:08:37;22.85;;;3.38;;
13163;SDS011;6647;53.688;10.746;2023-12-20T02:09:37;17.83;;;2.83;;
13163;SDS011;6647;53.688;10.746;2023-12-20T02:10:38;18.27;;;3.30;;
13163;SDS011;6647;53.688;10.746;2023-12-20T02:11:38;14.37;;;2.70;;
13163;SDS011;6647;53.688;10.746;2023-12-20T02:12:39;24.40;;;4.10;;
13163;SDS011;6647;53.688;10.746;2023-12-20T02:13:39;18.37;;;3.20;;
13163;SDS011;6647;53.688;10.746;2023-12-20T02:14:40;13.10;;;2.67;;
13163;SDS011;6647;53.688;10.746;2023-12-20T02:15:40;14.30;;;2.70;;
13163;SDS011;6647;53.688;10.746;2023-12-20T02:16:43;24.63;;;3.60;;
13163;SDS011;6647;53.688;10.746;2023-12-20T02:17:44;12.20;;;2.73;;
13163;SDS011;6647;53.688;10.746;2023-12-20T02:18:45;17.27;;;2.75;;
13163;SDS011;6647;53.688;10.746;2023-12-20T02:19:45;24.30;;;5.07;;
13163;SDS011;6647;53.688;10.746;2023-12-20T02:20:46;31.02;;;3.90;;
13163;SDS011;6647;53.688;10.746;2023-12-20T02:21:47;18.10;;;3.20;;
13163;SDS011;6647;53.688;10.746;2023-12-20T02:22:47;13.07;;;3.23;;
13163;SDS011;6647;53.688;10.746;2023-12-20T02:23:47;14.37;;;2.67;;
13163;SDS011;6647;53.688;10.746;2023-12-20T02:24:48;28.03;;;2.97;;
13163;SDS011;6647;53.688;10.746;2023-12-20T02:25:48;23.00;;;3.27;;
13163;SDS011;6647;53.688;10.746;2023-12-20T02:26:48;16.67;;;3.20;;
13163;SDS011;6647;53.688;10.746;2023-12-20T02:27:48;31.23;;;3.60;;
13163;SDS011;6647;53.688;10.746;2023-12-20T02:28:49;21.33;;;3.10;;
13163;SDS011;6647;53.688;10.746;2023-12-20T02:29:50;11.33;;;2.57;;
13163;SDS011;6647;53.688;10.746;2023-12-20T02:30:51;21.90;;;3.37;;
13163;SDS011;6647;53.688;10.746;2023-12-20T02:31:51;29.17;;;4.37;;
13163;SDS011;6647;53.688;10.746;2023-12-20T02:32:51;11.10;;;2.90;;
13163;SDS011;6647;53.688;10.746;2023-12-20T02:33:52;17.55;;;2.40;;
13163;SDS011;6647;53.688;10.746;2023-12-20T02:34:53;15.10;;;2.87;;
13163;SDS011;6647;53.688;10.746;2023-12-20T02:35:53;21.00;;;3.30;;
13163;SDS011;6647;53.688;10.746;2023-12-20T02:36:54;31.43;;;3.80;;
13163;SDS011;6647;53.688;10.746;2023-12-20T02:37:54;12.27;;;3.63;;
13163;SDS011;6647;53.688;10.746;2023-12-20T02:38:55;15.53;;;2.57;;
13163;SDS011;6647;53.688;10.746;2023-12-20T02:39:55;13.47;;;2.57;;
13163;SDS011;6647;53.688;10.746;2023-12-20T02:40:55;22.50;;;3.10;;
13163;SDS011;6647;53.688;10.746;2023-12-20T02:41:56;12.80;;;2.77;;
13163;SDS011;6647;53.688;10.746;2023-12-20T02:42:56;22.93;;;2.60;;
13163;SDS011;6647;53.688;10.746;2023-12-20T02:43:56;17.53;;;3.00;;
13163;SDS011;6647;53.688;10.746;2023-12-20T02:44:57;18.93;;;3.80;;
13163;SDS011;6647;53.688;10.746;2023-12-20T02:45:57;15.67;;;2.20;;
13163;SDS011;6647;53.688;10.746;2023-12-20T02:46:57;13.67;;;2.10;;
13163;SDS011;6647;53.688;10.746;2023-12-20T02:47:57;14.43;;;2.87;;
13163;SDS011;6647;53.688;10.746;2023-12-20T02:48:58;21.87;;;2.63;;
13163;SDS011;6647;53.688;10.746;2023-12-20T02:49:58;19.27;;;3.10;;
13163;SDS011;6647;53.688;10.746;2023-12-20T02:50:58;17.97;;;2.30;;
13163;SDS011;6647;53.688;10.746;2023-12-20T02:51:59;14.13;;;3.30;;
13163;SDS011;6647;53.688;10.746;2023-12-20T02:52:59;16.70;;;2.97;;
13163;SDS011;6647;53.688;10.746;2023-12-20T02:53:59;17.83;;;3.00;;
13163;SDS011;6647;53.688;10.746;2023-12-20T02:55:00;12.33;;;2.57;;
13163;SDS011;6647;53.688;10.746;2023-12-20T02:56:00;18.63;;;3.20;;
13163;SDS011;6647;53.688;10.746;2023-12-20T02:57:00;23.67;;;2.97;;
13163;SDS011;6647;53.688;10.746;2023-12-20T02:58:01;10.80;;;2.90;;
13163;SDS011;6647;53.688;10.746;2023-12-20T02:59:01;12.60;;;3.10;;
13163;SDS011;6647;53.688;10.746;2023-12-20T03:00:01;13.90;;;3.23;;
13163;SDS011;6647;53.688;10.746;2023-12-20T03:01:02;10.70;;;3.10;;
13163;SDS011;6647;53.688;10.746;2023-12-20T03:02:02;19.70;;;3.30;;
13163;SDS011;6647;53.688;10.746;2023-12-20T03:03:03;25.63;;;3.50;;
13163;SDS011;6647;53.688;10.746;2023-12-20T03:04:04;14.83;;;3.10;;
13163;SDS011;6647;53.688;10.746;2023-12-20T03:05:04;20.83;;;3.50;;
13163;SDS011;6647;53.688;10.746;2023-12-20T03:06:05;13.80;;;3.17;;
13163;SDS011;6647;53.688;10.746;2023-12-20T03:07:05;19.30;;;4.50;;
13163;SDS011;6647;53.688;10.746;2023-12-20T03:08:05;18.43;;;4.03;;
13163;SDS011;6647;53.688;10.746;2023-12-20T03:09:06;22.80;;;3.57;;
13163;SDS011;6647;53.688;10.746;2023-12-20T03:10:06;16.97;;;4.83;;
13163;SDS011;6647;53.688;10.746;2023-12-20T03:11:08;16.77;;;3.38;;
13163;SDS011;6647;53.688;10.746;2023-12-20T03:12:08;19.33;;;4.07;;
13163;SDS011;6647;53.688;10.746;2023-12-20T03:13:09;17.90;;;3.50;;
13163;SDS011;6647;53.688;10.746;2023-12-20T03:14:09;21.90;;;4.60;;
13163;SDS011;6647;53.688;10.746;2023-12-20T03:15:09;13.23;;;2.70;;
13163;SDS011;6647;53.688;10.746;2023-12-20T03:16:10;19.67;;;3.70;;
13163;SDS011;6647;53.688;10.746;2023-12-20T03:17:11;12.75;;;3.10;;
13163;SDS011;6647;53.688;10.746;2023-12-20T03:18:12;20.20;;;3.90;;
13163;SDS011;6647;53.688;10.746;2023-12-20T03:19:12;21.93;;;3.63;;
13163;SDS011;6647;53.688;10.746;2023-12-20T03:20:12;13.70;;;3.53;;
13163;SDS011;6647;53.688;10.746;2023-12-20T03:21:12;13.77;;;3.57;;
13163;SDS011;6647;53.688;10.746;2023-12-20T03:22:13;16.53;;;3.67;;
13163;SDS011;6647;53.688;10.746;2023-12-20T03:23:13;24.83;;;3.80;;
13163;SDS011;6647;53.688;10.746;2023-12-20T03:24:13;21.60;;;3.80;;
13163;SDS011;6647;53.688;10.746;2023-12-20T03:25:13;14.47;;;3.60;;
13163;SDS011;6647;53.688;10.746;2023-12-20T03:26:14;19.73;;;3.80;;
13163;SDS011;6647;53.688;10.746;2023-12-20T03:27:14;14.60;;;3.70;;
13163;SDS011;6647;53.688;10.746;2023-12-20T03:28:14;17.43;;;3.87;;
13163;SDS011;6647;53.688;10.746;2023-12-20T03:29:15;28.05;;;3.38;;
13163;SDS011;6647;53.688;10.746;2023-12-20T03:30:16;20.37;;;4.00;;
13163;SDS011;6647;53.688;10.746;2023-12-20T03:31:16;21.93;;;3.80;;
13163;SDS011;6647;53.688;10.746;2023-12-20T03:32:16;19.57;;;3.53;;
13163;SDS011;6647;53.688;10.746;2023-12-20T03:33:16;14.60;;;3.67;;
13163;SDS011;6647;53.688;10.746;2023-12-20T03:34:17;21.80;;;3.80;;
13163;SDS011;6647;53.688;10.746;2023-12-20T03:35:17;13.60;;;3.37;;
13163;SDS011;6647;53.688;10.746;2023-12-20T03:36:17;23.33;;;3.73;;
13163;SDS011;6647;53.688;10.746;2023-12-20T03:37:17;12.00;;;3.20;;
13163;SDS011;6647;53.688;10.746;2023-12-20T03:38:18;9.60;;;3.20;;
13163;SDS011;6647;53.688;10.746;2023-12-20T03:39:18;29.20;;;3.20;;
13163;SDS011;6647;53.688;10.746;2023-12-20T03:40:18;19.20;;;3.33;;
13163;SDS011;6647;53.688;10.746;2023-12-20T03:41:19;10.47;;;2.90;;
13163;SDS011;6647;53.688;10.746;2023-12-20T03:42:19;11.70;;;2.67;;
13163;SDS011;6647;53.688;10.746;2023-12-20T03:43:19;22.73;;;3.03;;
13163;SDS011;6647;53.688;10.746;2023-12-20T03:44:20;14.27;;;2.80;;
13163;SDS011;6647;53.688;10.746;2023-12-20T03:45:20;18.90;;;2.93;;
13163;SDS011;6647;53.688;10.746;2023-12-20T03:46:20;22.13;;;3.30;;
13163;SDS011;6647;53.688;10.746;2023-12-20T03:47:21;12.60;;;2.97;;
13163;SDS011;6647;53.688;10.746;2023-12-20T03:48:21;21.77;;;3.30;;
13163;SDS011;6647;53.688;10.746;2023-12-20T03:49:22;17.37;;;3.67;;
13163;SDS011;6647;53.688;10.746;2023-12-20T03:50:22;18.30;;;3.40;;
13163;SDS011;6647;53.688;10.746;2023-12-20T03:51:22;15.10;;;2.83;;
13163;SDS011;6647;53.688;10.746;2023-12-20T03:52:23;21.77;;;3.13;;
13163;SDS011;6647;53.688;10.746;2023-12-20T03:53:23;14.70;;;2.70;;
13163;SDS011;6647;53.688;10.746;2023-12-20T03:54:24;11.77;;;3.30;;
13163;SDS011;6647;53.688;10.746;2023-12-20T03:55:24;13.50;;;3.37;;
13163;SDS011;6647;53.688;10.746;2023-12-20T03:56:25;20.80;;;3.07;;
13163;SDS011;6647;53.688;10.746;2023-12-20T03:57:25;16.27;;;3.13;;
13163;SDS011;6647;53.688;10.746;2023-12-20T03:58:25;10.60;;;3.03;;
13163;SDS011;6647;53.688;10.746;2023-12-20T03:59:26;22.43;;;3.03;;
13163;SDS011;6647;53.688;10.746;2023-12-20T04:00:26;19.50;;;3.40;;
13163;SDS011;6647;53.688;10.746;2023-12-20T04:01:26;17.87;;;3.60;;
13163;SDS011;6647;53.688;10.746;2023-12-20T04:02:27;17.53;;;3.00;;
13163;SDS011;6647;53.688;10.746;2023-12-20T04:03:27;14.73;;;3.40;;
13163;SDS011;6647;53.688;10.746;2023-12-20T04:04:27;9.47;;;2.80;;
13163;SDS011;6647;53.688;10.746;2023-12-20T04:05:28;19.83;;;3.70;;
13163;SDS011;6647;53.688;10.746;2023-12-20T04:06:28;12.20;;;3.63;;
13163;SDS011;6647;53.688;10.746;2023-12-20T04:07:28;13.50;;;3.47;;
13163;SDS011;6647;53.688;10.746;2023-12-20T04:08:29;15.07;;;4.17;;
13163;SDS011;6647;53.688;10.746;2023-12-20T04:09:30;23.23;;;4.90;;
13163;SDS011;6647;53.688;10.746;2023-12-20T04:10:30;17.03;;;3.90;;
13163;SDS011;6647;53.688;10.746;2023-12-20T04:11:30;16.73;;;4.43;;
13163;SDS011;6647;53.688;10.746;2023-12-20T04:12:31;16.43;;;4.00;;
13163;SDS011;6647;53.688;10.746;2023-12-20T04:13:32;16.63;;;4.22;;
13163;SDS011;6647;53.688;10.746;2023-12-20T04:14:32;15.90;;;3.90;;
13163;SDS011;6647;53.688;10.746;2023-12-20T04:15:33;20.43;;;5.20;;
13163;SDS011;6647;53.688;10.746;2023-12-20T04:16:33;21.53;;;3.93;;
13163;SDS011;6647;53.688;10.746;2023-12-20T04:17:33;17.70;;;3.90;;
13163;SDS011;6647;53.688;10.746;2023-12-20T04:18:33;21.13;;;4.00;;
13163;SDS011;6647;53.688;10.746;2023-12-20T04:19:34;22.90;;;4.33;;
13163;SDS011;6647;53.688;10.746;2023-12-20T04:20:34;19.70;;;3.53;;
13163;SDS011;6647;53.688;10.746;2023-12-20T04:21:34;23.23;;;4.00;;
13163;SDS011;6647;53.688;10.746;2023-12-20T04:22:35;20.10;;;3.90;;
13163;SDS011;6647;53.688;10.746;2023-12-20T04:23:35;12.03;;;3.60;;
13163;SDS011;6647;53.688;10.746;2023-12-20T04:24:36;15.40;;;4.20;;
13163;SDS011;6647;53.688;10.746;2023-12-20T04:25:36;18.50;;;4.23;;
13163;SDS011;6647;53.688;10.746;2023-12-20T04:26:36;20.53;;;4.07;;
13163;SDS011;6647;53.688;10.746;2023-12-20T04:27:37;17.10;;;4.47;;
13163;SDS011;6647;53.688;10.746;2023-12-20T04:28:37;15.10;;;4.03;;
13163;SDS011;6647;53.688;10.746;2023-12-20T04:29:37;25.60;;;4.60;;
13163;SDS011;6647;53.688;10.746;2023-12-20T04:30:37;16.93;;;4.20;;
13163;SDS011;6647;53.688;10.746;2023-12-20T04:31:38;16.00;;;3.97;;
13163;SDS011;6647;53.688;10.746;2023-12-20T04:32:38;17.67;;;4.67;;
13163;SDS011;6647;53.688;10.746;2023-12-20T04:33:38;17.07;;;4.17;;
13163;SDS011;6647;53.688;10.746;2023-12-20T04:34:39;18.80;;;4.50;;
13163;SDS011;6647;53.688;10.746;2023-12-20T04:35:39;13.83;;;3.90;;
13163;SDS011;6647;53.688;10.746;2023-12-20T04:36:41;12.25;;;3.88;;
13163;SDS011;6647;53.688;10.746;2023-12-20T04:37:41;18.33;;;3.93;;
13163;SDS011;6647;53.688;10.746;2023-12-20T04:38:41;13.30;;;4.13;;
13163;SDS011;6647;53.688;10.746;2023-12-20T04:39:42;13.87;;;3.17;;
13163;SDS011;6647;53.688;10.746;2023-12-20T04:40:42;13.23;;;3.43;;
13163;SDS011;6647;53.688;10.746;2023-12-20T04:41:43;18.57;;;4.40;;
13163;SDS011;6647;53.688;10.746;2023-12-20T04:42:43;19.77;;;5.40;;
13163;SDS011;6647;53.688;10.746;2023-12-20T04:43:43;14.87;;;5.07;;
13163;SDS011;6647;53.688;10.746;2023-12-20T04:44:43;16.57;;;4.00;;
13163;SDS011;6647;53.688;10.746;2023-12-20T04:45:44;15.80;;;4.00;;
13163;SDS011;6647;53.688;10.746;2023-12-20T04:46:44;20.23;;;4.60;;
13163;SDS011;6647;53.688;10.746;2023-12-20T04:47:44;12.80;;;3.80;;
13163;SDS011;6647;53.688;10.746;2023-12-20T04:48:46;13.73;;;4.10;;
13163;SDS011;6647;53.688;10.746;2023-12-20T04:49:47;23.80;;;5.53;;
13163;SDS011;6647;53.688;10.746;2023-12-20T04:50:47;18.63;;;4.50;;
13163;SDS011;6647;53.688;10.746;2023-12-20T04:51:47;17.90;;;4.30;;
13163;SDS011;6647;53.688;10.746;2023-12-20T04:52:47;10.13;;;4.27;;
13163;SDS011;6647;53.688;10.746;2023-12-20T04:53:48;26.80;;;5.40;;
13163;SDS011;6647;53.688;10.746;2023-12-20T04:54:48;18.10;;;4.70;;
13163;SDS011;6647;53.688;10.746;2023-12-20T04:55:48;16.70;;;4.03;;
13163;SDS011;6647;53.688;10.746;2023-12-20T04:56:49;15.50;;;4.27;;
13163;SDS011;6647;53.688;10.746;2023-12-20T04:57:49;20.80;;;3.87;;
13163;SDS011;6647;53.688;10.746;2023-12-20T04:58:50;19.63;;;3.90;;
13163;SDS011;6647;53.688;10.746;2023-12-20T04:59:50;15.60;;;4.00;;
13163;SDS011;6647;53.688;10.746;2023-12-20T05:00:50;15.30;;;3.50;;
13163;SDS011;6647;53.688;10.746;2023-12-20T05:01:50;24.07;;;4.20;;
13163;SDS011;6647;53.688;10.746;2023-12-20T05:02:51;17.73;;;3.97;;
13163;SDS011;6647;53.688;10.746;2023-12-20T05:03:52;20.57;;;3.50;;
13163;SDS011;6647;53.688;10.746;2023-12-20T05:04:52;16.33;;;3.30;;
13163;SDS011;6647;53.688;10.746;2023-12-20T05:05:52;16.60;;;3.90;;
13163;SDS011;6647;53.688;10.746;2023-12-20T05:06:53;17.33;;;3.20;;
13163;SDS011;6647;53.688;10.746;2023-12-20T05:07:53;18.00;;;3.70;;
13163;SDS011;6647;53.688;10.746;2023-12-20T05:08:53;22.87;;;3.43;;
13163;SDS011;6647;53.688;10.746;2023-12-20T05:09:54;17.40;;;3.80;;
13163;SDS011;6647;53.688;10.746;2023-12-20T05:10:54;11.10;;;3.33;;
13163;SDS011;6647;53.688;10.746;2023-12-20T05:11:54;10.40;;;3.93;;
13163;SDS011;6647;53.688;10.746;2023-12-20T05:12:55;12.07;;;3.37;;
13163;SDS011;6647;53.688;10.746;2023-12-20T05:13:55;12.23;;;3.50;;
13163;SDS011;6647;53.688;10.746;2023-12-20T05:14:56;17.30;;;3.90;;
13163;SDS011;6647;53.688;10.746;2023-12-20T05:15:58;21.05;;;4.50;;
13163;SDS011;6647;53.688;10.746;2023-12-20T05:16:58;22.67;;;4.17;;
13163;SDS011;6647;53.688;10.746;2023-12-20T05:17:58;19.57;;;4.30;;
13163;SDS011;6647;53.688;10.746;2023-12-20T05:18:59;19.63;;;4.67;;
13163;SDS011;6647;53.688;10.746;2023-12-20T05:20:00;25.08;;;4.53;;
13163;SDS011;6647;53.688;10.746;2023-12-20T05:21:01;15.60;;;4.33;;
13163;SDS011;6647;53.688;10.746;2023-12-20T05:22:01;16.47;;;3.83;;
13163;SDS011;6647;53.688;10.746;2023-12-20T05:23:02;15.60;;;4.30;;
13163;SDS011;6647;53.688;10.746;2023-12-20T05:24:03;23.83;;;4.30;;
13163;SDS011;6647;53.688;10.746;2023-12-20T05:25:03;21.57;;;4.43;;
13163;SDS011;6647;53.688;10.746;2023-12-20T05:26:04;22.05;;;4.55;;
13163;SDS011;6647;53.688;10.746;2023-12-20T05:27:04;21.30;;;4.90;;
13163;SDS011;6647;53.688;10.746;2023-12-20T05:28:05;18.17;;;3.93;;
13163;SDS011;6647;53.688;10.746;2023-12-20T05:29:05;15.07;;;3.90;;
13163;SDS011;6647;53.688;10.746;2023-12-20T05:30:06;27.37;;;4.30;;
13163;SDS011;6647;53.688;10.746;2023-12-20T05:31:06;20.57;;;4.77;;
13163;SDS011;6647;53.688;10.746;2023-12-20T05:32:07;16.33;;;4.80;;
13163;SDS011;6647;53.688;10.746;2023-12-20T05:33:07;25.43;;;5.50;;
13163;SDS011;6647;53.688;10.746;2023-12-20T05:34:07;18.53;;;4.27;;
13163;SDS011;6647;53.688;10.746;2023-12-20T05:35:08;14.40;;;5.23;;
13163;SDS011;6647;53.688;10.746;2023-12-20T05:36:08;21.80;;;4.53;;
13163;SDS011;6647;53.688;10.746;2023-12-20T05:37:11;17.02;;;4.70;;
13163;SDS011;6647;53.688;10.746;2023-12-20T05:38:11;19.80;;;5.10;;
13163;SDS011;6647;53.688;10.746;2023-12-20T05:39:12;19.50;;;5.00;;
13163;SDS011;6647;53.688;10.746;2023-12-20T05:40:12;18.97;;;4.50;;
13163;SDS011;6647;53.688;10.746;2023-12-20T05:41:12;18.40;;;5.43;;
13163;SDS011;6647;53.688;10.746;2023-12-20T05:42:13;16.23;;;3.93;;
13163;SDS011;6647;53.688;10.746;2023-12-20T05:43:13;16.13;;;4.93;;
13163;SDS011;6647;53.688;10.746;2023-12-20T05:44:14;17.20;;;4.40;;
13163;SDS011;6647;53.688;10.746;2023-12-20T05:45:14;17.00;;;4.50;;
13163;SDS011;6647;53.688;10.746;2023-12-20T05:46:15;16.80;;;4.63;;
13163;SDS011;6647;53.688;10.746;2023-12-20T05:47:15;14.70;;;4.13;;
13163;SDS011;6647;53.688;10.746;2023-12-20T05:48:15;16.80;;;4.70;;
13163;SDS011;6647;53.688;10.746;2023-12-20T05:49:15;22.47;;;5.10;;
13163;SDS011;6647;53.688;10.746;2023-12-20T05:50:16;11.43;;;4.63;;
13163;SDS011;6647;53.688;10.746;2023-12-20T05:51:16;23.23;;;5.63;;
13163;SDS011;6647;53.688;10.746;2023-12-20T05:52:17;13.50;;;4.50;;
13163;SDS011;6647;53.688;10.746;2023-12-20T05:53:17;21.37;;;4.87;;
13163;SDS011;6647;53.688;10.746;2023-12-20T05:54:17;14.80;;;3.80;;
13163;SDS011;6647;53.688;10.746;2023-12-20T05:55:18;15.33;;;4.17;;
13163;SDS011;6647;53.688;10.746;2023-12-20T05:56:18;18.43;;;4.10;;
13163;SDS011;6647;53.688;10.746;2023-12-20T05:57:18;18.77;;;4.90;;
13163;SDS011;6647;53.688;10.746;2023-12-20T05:58:18;20.80;;;4.53;;
13163;SDS011;6647;53.688;10.746;2023-12-20T05:59:19;21.70;;;4.50;;